Cincinnati, Ohio
Current Conditions -  °F | °C
As of 5:37 AM on Thursday 27 Nov 2014 (Local Time) from KLUK Reporting Station
Overcast Overcast  
Wind Chill: -5°   Ceiling: 2900
Heat Index: -1°   Visibility: 9mi
Dew Point: -5°   Wind: 8mph
Humidity: 75%   Direction: 330°NNW
Pressure: 30.17"   Gusts: NA
Location:  39.11°N, 84.5°W
Report Text: KLUK 271037Z AUTO 33007KT 9SM BKN029 BKN060 OVC090 M01/M05 A3017 RMK AO2 T10111050
Loading
Personal Weather Stations






























Interactive Weather Map New forecast layout! Learn more

10-Day Weather Forecast

Advertisements
Track Severe Weather on mobile